createdAt,value
2022-08-19T00:01:42.298Z,19.50
2022-08-19T00:04:12.614Z,21.40
2022-08-19T00:06:40.342Z,20.10
2022-08-19T00:09:08.059Z,19.60
2022-08-19T00:11:38.610Z,19.50
2022-08-19T00:14:06.178Z,20.30
2022-08-19T00:16:33.166Z,19.50
2022-08-19T00:18:59.909Z,20.60
2022-08-19T00:21:27.693Z,19.70
2022-08-19T00:23:55.277Z,19.40
2022-08-19T00:26:22.094Z,19.50
2022-08-19T00:28:48.762Z,20.90
2022-08-19T00:31:17.304Z,20.30
2022-08-19T00:33:44.306Z,19.40
2022-08-19T00:36:11.885Z,19.60
2022-08-19T00:38:42.185Z,20.40
2022-08-19T00:41:09.753Z,20.20
2022-08-19T00:43:38.550Z,19.60
2022-08-19T00:46:05.833Z,19.30
2022-08-19T00:48:33.481Z,19.30
2022-08-19T00:51:00.535Z,20.70
2022-08-19T00:53:28.527Z,19.90
2022-08-19T00:55:57.313Z,20.40
2022-08-19T00:58:25.853Z,19.70
2022-08-19T01:00:52.506Z,20.40
2022-08-19T01:03:20.873Z,19.90
2022-08-19T01:05:48.256Z,19.10
2022-08-19T01:08:16.285Z,19.20
2022-08-19T01:10:45.041Z,19.10
2022-08-19T01:13:12.871Z,19.00
2022-08-19T01:15:42.800Z,19.40
2022-08-19T01:18:12.495Z,19.10
2022-08-19T01:20:40.085Z,20.60
2022-08-19T01:23:06.715Z,19.20
2022-08-19T01:25:37.172Z,20.50
2022-08-19T01:28:10.636Z,19.20
2022-08-19T01:30:38.087Z,19.30
2022-08-19T01:33:06.761Z,19.20
2022-08-19T01:35:33.449Z,19.20
2022-08-19T01:38:01.744Z,20.60
2022-08-19T01:40:31.884Z,19.20
2022-08-19T01:42:58.892Z,19.10
2022-08-19T01:45:26.876Z,19.00
2022-08-19T01:48:01.921Z,19.00
2022-08-19T01:50:30.533Z,18.90
2022-08-19T01:53:02.419Z,18.70
2022-08-19T01:55:32.819Z,20.10
2022-08-19T01:58:00.940Z,18.60
2022-08-19T02:00:29.358Z,18.60
2022-08-19T02:02:56.088Z,18.90
2022-08-19T02:05:22.769Z,18.50
2022-08-19T02:07:49.552Z,19.40
2022-08-19T02:10:19.487Z,19.80
2022-08-19T02:12:46.500Z,18.40
2022-08-19T02:15:14.408Z,19.20
2022-08-19T02:17:41.167Z,18.20
2022-08-19T02:20:08.688Z,18.20
2022-08-19T02:22:36.333Z,18.20
2022-08-19T02:25:03.371Z,18.10
2022-08-19T02:27:30.238Z,18.10
2022-08-19T02:29:56.961Z,19.20
2022-08-19T02:32:23.719Z,19.10
2022-08-19T02:34:50.458Z,18.20
2022-08-19T02:37:35.752Z,19.80
2022-08-19T02:40:02.915Z,18.00
2022-08-19T02:42:30.131Z,18.00
2022-08-19T02:44:56.872Z,19.50
2022-08-19T02:47:23.692Z,18.70
2022-08-19T02:49:53.543Z,20.10
2022-08-19T02:52:20.219Z,17.90
2022-08-19T02:54:46.920Z,19.70
2022-08-19T02:57:13.565Z,19.20
2022-08-19T02:59:40.902Z,18.00
2022-08-19T03:02:07.599Z,18.70
2022-08-19T03:04:34.399Z,18.00
2022-08-19T03:07:11.224Z,18.50
2022-08-19T03:09:38.789Z,18.00
2022-08-19T03:12:05.973Z,17.90
2022-08-19T03:14:33.206Z,17.90
2022-08-19T03:16:59.914Z,18.50
2022-08-19T03:19:26.911Z,19.90
2022-08-19T03:21:56.626Z,18.00
2022-08-19T03:24:23.348Z,19.20
2022-08-19T03:26:52.227Z,19.00
2022-08-19T03:29:30.411Z,17.90
2022-08-19T03:31:58.509Z,19.20
2022-08-19T03:34:29.737Z,18.90
2022-08-19T03:36:57.303Z,18.00
2022-08-19T03:39:24.952Z,19.10
2022-08-19T03:42:32.229Z,17.90
2022-08-19T03:44:39.124Z,18.50
2022-08-19T03:47:06.429Z,18.00
2022-08-19T03:49:34.563Z,18.00
2022-08-19T03:52:06.134Z,18.90
2022-08-19T03:54:32.996Z,18.00
2022-08-19T03:56:59.892Z,17.90
2022-08-19T03:59:31.657Z,18.60
2022-08-19T04:01:59.200Z,19.50
2022-08-19T04:04:29.082Z,19.50
2022-08-19T04:06:56.727Z,18.00
2022-08-19T04:09:23.478Z,18.70
2022-08-19T04:11:54.659Z,19.70
2022-08-19T04:14:22.380Z,19.20
2022-08-19T04:16:49.379Z,18.50
2022-08-19T04:19:16.563Z,19.00
2022-08-19T04:21:45.062Z,18.70
2022-08-19T04:24:11.939Z,20.20
2022-08-19T04:26:40.110Z,18.10
2022-08-19T04:29:12.803Z,20.70
2022-08-19T04:31:40.562Z,18.10
2022-08-19T04:34:09.147Z,18.20
2022-08-19T04:36:36.843Z,18.00
2022-08-19T04:39:05.346Z,17.90
2022-08-19T04:41:50.722Z,19.00
2022-08-19T04:44:19.121Z,17.90
2022-08-19T04:46:51.039Z,18.10
2022-08-19T04:49:25.246Z,18.80
2022-08-19T04:51:55.430Z,17.90
2022-08-19T04:54:38.240Z,17.90
2022-08-19T04:57:11.415Z,20.30
2022-08-19T04:59:39.208Z,18.00
2022-08-19T05:02:07.493Z,18.30
2022-08-19T05:04:34.692Z,18.00
2022-08-19T05:07:04.359Z,20.50
2022-08-19T05:09:52.589Z,20.60
2022-08-19T05:12:18.361Z,18.10
2022-08-19T05:14:46.575Z,18.30
2022-08-19T05:17:31.309Z,18.20
2022-08-19T05:20:18.750Z,18.20
2022-08-19T05:22:47.733Z,18.20
2022-08-19T05:25:16.498Z,19.10
2022-08-19T05:27:43.458Z,18.20
2022-08-19T05:30:10.774Z,18.60
2022-08-19T05:32:37.783Z,18.10
2022-08-19T05:35:04.925Z,18.10
2022-08-19T05:37:31.673Z,18.20
2022-08-19T05:39:58.484Z,19.00
2022-08-19T05:42:25.317Z,20.30
2022-08-19T05:44:52.227Z,20.10
2022-08-19T05:47:20.864Z,18.20
2022-08-19T05:49:48.076Z,18.10
2022-08-19T05:52:16.921Z,18.90
2022-08-19T05:54:51.302Z,19.50
2022-08-19T05:57:21.362Z,20.70
2022-08-19T05:59:49.484Z,18.30
2022-08-19T06:02:20.143Z,18.30
2022-08-19T06:04:46.876Z,18.90
2022-08-19T06:07:13.781Z,19.50
2022-08-19T06:09:40.999Z,21.00
2022-08-19T06:12:10.381Z,19.80
2022-08-19T06:14:37.623Z,19.40
2022-08-19T06:17:09.335Z,19.60
2022-08-19T06:19:40.608Z,19.20
2022-08-19T06:22:08.481Z,17.20
2022-08-19T06:24:36.203Z,18.40
2022-08-19T06:27:04.074Z,18.80
2022-08-19T06:29:31.236Z,19.20
2022-08-19T06:31:59.423Z,18.40
2022-08-19T06:34:26.784Z,19.50
2022-08-19T06:36:53.717Z,18.40
2022-08-19T06:39:22.082Z,18.50
2022-08-19T06:41:52.501Z,19.50
2022-08-19T06:44:21.897Z,19.50
2022-08-19T06:46:53.550Z,18.60
2022-08-19T06:49:22.167Z,18.80
2022-08-19T06:51:49.587Z,19.60
2022-08-19T06:54:20.011Z,18.60
2022-08-19T06:56:47.392Z,19.50
2022-08-19T06:59:18.732Z,20.70
2022-08-19T07:01:52.783Z,18.80
2022-08-19T07:04:21.415Z,18.80
2022-08-19T07:06:55.072Z,18.90
2022-08-19T07:09:22.122Z,19.20
2022-08-19T07:11:50.286Z,19.00
2022-08-19T07:14:19.865Z,19.00
2022-08-19T07:16:48.272Z,19.00
2022-08-19T07:19:16.127Z,19.60
2022-08-19T07:21:45.553Z,19.30
2022-08-19T07:24:13.243Z,19.00
2022-08-19T07:26:42.304Z,19.00
2022-08-19T07:29:09.968Z,19.10
2022-08-19T07:31:37.876Z,19.10
2022-08-19T07:34:09.100Z,20.60
2022-08-19T07:36:37.094Z,19.90
2022-08-19T07:39:08.805Z,19.10
2022-08-19T07:41:36.364Z,19.10
2022-08-19T07:44:04.744Z,19.10
2022-08-19T07:46:32.238Z,19.20
2022-08-19T07:48:59.038Z,19.20
2022-08-19T07:51:36.299Z,20.40
2022-08-19T07:54:04.274Z,19.30
2022-08-19T07:56:31.109Z,19.30
2022-08-19T07:58:58.025Z,19.30
2022-08-19T08:01:26.211Z,19.90
2022-08-19T08:04:12.285Z,19.50
2022-08-19T08:06:57.714Z,21.20
2022-08-19T08:09:27.042Z,21.00
2022-08-19T08:11:55.800Z,19.70
2022-08-19T08:14:29.002Z,20.30
2022-08-19T08:16:56.937Z,21.10
2022-08-19T08:19:27.540Z,19.90
2022-08-19T08:21:58.040Z,21.00
2022-08-19T08:24:28.318Z,20.30
2022-08-19T08:26:57.447Z,20.90
2022-08-19T08:29:26.097Z,20.80
2022-08-19T08:31:59.659Z,20.20
2022-08-19T08:34:27.737Z,20.60
2022-08-19T08:36:54.448Z,21.10
2022-08-19T08:39:22.021Z,20.80
2022-08-19T08:42:09.934Z,20.40
2022-08-19T08:44:37.400Z,20.90
2022-08-19T08:47:06.168Z,20.10
2022-08-19T08:49:41.674Z,20.10
2022-08-19T08:52:24.433Z,20.10
2022-08-19T08:54:55.250Z,20.30
2022-08-19T08:57:34.863Z,20.30
2022-08-19T09:00:15.528Z,21.90
2022-08-19T09:02:43.826Z,20.30
2022-08-19T09:05:16.606Z,21.70
2022-08-19T09:07:47.225Z,21.60
2022-08-19T09:10:29.614Z,20.40
2022-08-19T09:12:59.440Z,20.40
2022-08-19T09:15:33.610Z,20.30
2022-08-19T09:18:04.673Z,20.30
2022-08-19T09:20:34.226Z,20.90
2022-08-19T09:23:01.306Z,20.20
2022-08-19T09:25:29.706Z,20.20
2022-08-19T09:28:02.431Z,20.20
2022-08-19T09:30:34.703Z,21.30
2022-08-19T09:33:01.858Z,21.00
2022-08-19T09:35:29.871Z,20.30
2022-08-19T09:37:59.519Z,21.20
2022-08-19T09:40:27.951Z,21.00
2022-08-19T09:42:58.974Z,20.70
2022-08-19T09:45:25.952Z,21.20
2022-08-19T09:47:54.853Z,22.70
2022-08-19T09:50:23.174Z,21.70
2022-08-19T09:52:55.579Z,20.70
2022-08-19T09:55:24.303Z,20.10
2022-08-19T09:57:50.948Z,20.30
2022-08-19T10:00:17.809Z,21.60
2022-08-19T10:02:45.729Z,20.20
2022-08-19T10:05:31.474Z,22.70
2022-08-19T10:07:58.533Z,20.60
2022-08-19T10:10:25.475Z,21.00
2022-08-19T10:12:54.754Z,21.00
2022-08-19T10:15:28.782Z,22.60
2022-08-19T10:17:56.599Z,21.40
2022-08-19T10:20:26.170Z,20.90
2022-08-19T10:22:53.369Z,22.30
2022-08-19T10:25:20.228Z,20.30
2022-08-19T10:27:51.396Z,20.60
2022-08-19T10:30:18.931Z,21.70
2022-08-19T10:32:47.279Z,20.40
2022-08-19T10:35:14.500Z,20.50
2022-08-19T10:37:57.549Z,20.50
2022-08-19T10:40:29.240Z,20.60
2022-08-19T10:42:56.637Z,21.40
2022-08-19T10:45:27.117Z,20.60
2022-08-19T10:47:55.595Z,20.70
2022-08-19T10:50:41.278Z,21.40
2022-08-19T10:53:12.145Z,20.80
2022-08-19T10:55:57.759Z,20.80
2022-08-19T10:58:26.410Z,20.90
2022-08-19T11:00:54.717Z,20.90
2022-08-19T11:03:21.814Z,20.90
2022-08-19T11:05:57.890Z,20.90
2022-08-19T11:08:25.357Z,21.00
2022-08-19T11:10:56.334Z,21.80
2022-08-19T11:13:24.238Z,21.80
2022-08-19T11:15:58.206Z,21.50
2022-08-19T11:18:25.431Z,21.10
2022-08-19T11:20:52.326Z,21.10
2022-08-19T11:23:19.308Z,21.10
2022-08-19T11:25:46.561Z,21.10
2022-08-19T11:28:13.848Z,21.10
2022-08-19T11:30:40.609Z,21.10
2022-08-19T11:33:07.357Z,21.20
2022-08-19T11:35:34.527Z,21.20
2022-08-19T11:38:02.719Z,21.30
2022-08-19T11:40:29.432Z,21.30
2022-08-19T11:42:56.629Z,21.20
2022-08-19T11:45:24.019Z,21.30
2022-08-19T11:47:50.708Z,21.20
2022-08-19T11:50:17.556Z,21.30
2022-08-19T11:52:46.225Z,21.30
2022-08-19T11:55:13.477Z,20.60
2022-08-19T11:57:41.847Z,21.00
2022-08-19T12:00:12.540Z,21.50
2022-08-19T12:02:39.290Z,21.60
2022-08-19T12:05:11.530Z,21.70
2022-08-19T12:07:39.153Z,21.80
2022-08-19T12:10:06.061Z,21.90
2022-08-19T12:12:32.822Z,22.10
2022-08-19T12:14:59.604Z,22.10
2022-08-19T12:17:27.766Z,22.10
2022-08-19T12:19:54.748Z,22.20
2022-08-19T12:22:22.359Z,22.20
2022-08-19T12:24:51.254Z,22.20
2022-08-19T12:27:40.405Z,22.30
2022-08-19T12:30:05.203Z,22.50
2022-08-19T12:32:31.916Z,22.60
2022-08-19T12:34:58.676Z,22.80
2022-08-19T12:37:25.398Z,22.90
2022-08-19T12:39:52.112Z,23.10
2022-08-19T12:42:18.924Z,23.30
2022-08-19T12:44:45.927Z,23.50
2022-08-19T12:47:15.370Z,23.60
2022-08-19T12:49:53.480Z,23.60
2022-08-19T12:52:23.810Z,23.50
2022-08-19T12:54:54.341Z,23.60
2022-08-19T12:57:23.217Z,23.50
2022-08-19T12:59:59.468Z,23.50
2022-08-19T13:02:26.222Z,23.50
2022-08-19T13:04:53.002Z,23.50
2022-08-19T13:07:19.710Z,23.60
2022-08-19T13:09:46.344Z,23.60
2022-08-19T13:12:14.146Z,23.70
2022-08-19T13:14:41.984Z,23.80
2022-08-19T13:17:09.546Z,23.90
2022-08-19T13:19:40.974Z,23.90
2022-08-19T13:22:13.145Z,24.00
2022-08-19T13:24:57.177Z,23.90
2022-08-19T13:27:23.812Z,23.80
2022-08-19T13:30:09.177Z,23.80
2022-08-19T13:32:54.493Z,24.80
2022-08-19T13:35:21.226Z,23.90
2022-08-19T13:37:48.326Z,23.90
2022-08-19T13:40:19.193Z,23.90
2022-08-19T13:42:48.426Z,24.10
2022-08-19T13:45:20.488Z,24.40
2022-08-19T13:47:53.572Z,24.10
2022-08-19T13:50:26.545Z,24.20
2022-08-19T13:52:54.064Z,24.50
2022-08-19T13:55:22.113Z,24.70
2022-08-19T13:57:52.936Z,24.10
2022-08-19T14:00:20.111Z,24.10
2022-08-19T14:02:47.814Z,24.10
2022-08-19T14:05:16.632Z,24.10
2022-08-19T14:07:43.257Z,24.30
2022-08-19T14:10:11.510Z,24.90
2022-08-19T14:12:38.387Z,24.50
2022-08-19T14:15:06.204Z,24.50
2022-08-19T14:17:33.023Z,24.50
2022-08-19T14:20:10.596Z,24.40
2022-08-19T14:22:38.791Z,24.30
2022-08-19T14:25:06.402Z,24.10
2022-08-19T14:27:36.870Z,24.10
2022-08-19T14:30:04.565Z,23.90
2022-08-19T14:32:31.221Z,23.80
2022-08-19T14:34:57.932Z,25.90
2022-08-19T14:37:24.971Z,24.40
2022-08-19T14:39:52.009Z,23.60
2022-08-19T14:42:18.722Z,23.60
2022-08-19T14:44:45.327Z,25.40
2022-08-19T14:47:12.376Z,23.90
2022-08-19T14:49:43.887Z,24.00
2022-08-19T14:52:13.758Z,23.50
2022-08-19T14:54:40.409Z,24.30
2022-08-19T14:57:07.127Z,23.60
2022-08-19T14:59:35.139Z,23.40
2022-08-19T15:02:20.493Z,23.40
2022-08-19T15:04:48.467Z,23.50
2022-08-19T15:07:25.698Z,23.60
2022-08-19T15:09:55.756Z,23.60
2022-08-19T15:12:23.552Z,23.80
2022-08-19T15:14:56.075Z,23.60
2022-08-19T15:17:45.181Z,24.80
2022-08-19T15:20:11.175Z,23.50
2022-08-19T15:22:37.897Z,23.60
2022-08-19T15:25:05.768Z,23.50
2022-08-19T15:27:32.945Z,23.50
2022-08-19T15:30:01.161Z,23.50
2022-08-19T15:32:31.630Z,23.60
2022-08-19T15:34:58.636Z,24.80
2022-08-19T15:37:25.408Z,23.70
2022-08-19T15:39:52.147Z,23.80
2022-08-19T15:42:30.183Z,23.80
2022-08-19T15:45:01.067Z,24.10
2022-08-19T15:47:34.424Z,25.20
2022-08-19T15:50:10.666Z,25.00
2022-08-19T15:52:49.556Z,23.90
2022-08-19T15:55:34.157Z,23.90
2022-08-19T15:58:28.335Z,24.00
2022-08-19T16:01:20.838Z,24.00
2022-08-19T16:04:11.296Z,24.00
2022-08-19T16:06:44.345Z,24.00
2022-08-19T16:09:11.060Z,24.00
2022-08-19T16:11:39.589Z,24.00
2022-08-19T16:14:09.282Z,23.90
2022-08-19T16:16:36.764Z,24.10
2022-08-19T16:19:06.938Z,23.90
2022-08-19T16:21:39.602Z,24.90
2022-08-19T16:24:10.254Z,25.30
2022-08-19T16:26:37.195Z,23.70
2022-08-19T16:29:08.854Z,23.70
2022-08-19T16:31:39.285Z,23.60
2022-08-19T16:34:06.198Z,23.70
2022-08-19T16:36:33.803Z,23.50
2022-08-19T16:39:00.524Z,24.60
2022-08-19T16:41:27.993Z,26.00
2022-08-19T16:43:55.239Z,25.10
2022-08-19T16:46:22.602Z,23.50
2022-08-19T16:48:49.833Z,23.70
2022-08-19T16:51:16.676Z,23.70
2022-08-19T16:53:45.168Z,23.40
2022-08-19T16:56:12.525Z,23.80
2022-08-19T16:58:39.368Z,23.30
2022-08-19T17:01:08.225Z,23.60
2022-08-19T17:03:36.426Z,23.20
2022-08-19T17:06:16.033Z,25.00
2022-08-19T17:08:48.856Z,23.10
2022-08-19T17:11:18.682Z,23.10
2022-08-19T17:13:47.651Z,23.70
2022-08-19T17:16:15.385Z,23.00
2022-08-19T17:18:42.046Z,23.20
2022-08-19T17:21:08.692Z,22.90
2022-08-19T17:23:43.552Z,22.90
2022-08-19T17:26:17.054Z,22.90
2022-08-19T17:28:46.285Z,24.00
2022-08-19T17:31:12.872Z,23.10
2022-08-19T17:33:41.069Z,23.00
2022-08-19T17:36:08.414Z,22.80
2022-08-19T17:38:35.941Z,22.80
2022-08-19T17:41:06.156Z,24.10
2022-08-19T17:43:37.059Z,24.50
2022-08-19T17:46:05.756Z,23.40
2022-08-19T17:48:38.680Z,22.70
2022-08-19T17:51:16.236Z,22.60
2022-08-19T17:53:43.427Z,22.60
2022-08-19T17:56:10.741Z,22.80
2022-08-19T17:58:41.546Z,22.60
2022-08-19T18:01:12.549Z,22.80
2022-08-19T18:03:40.384Z,22.50
2022-08-19T18:06:07.977Z,22.40
2022-08-19T18:08:37.920Z,22.40
2022-08-19T18:11:04.942Z,23.40
2022-08-19T18:13:31.766Z,22.30
2022-08-19T18:16:01.483Z,22.30
2022-08-19T18:18:31.208Z,22.30
2022-08-19T18:20:58.015Z,22.10
2022-08-19T18:23:43.771Z,22.10
2022-08-19T18:26:11.358Z,22.00
2022-08-19T18:28:39.809Z,22.00
2022-08-19T18:31:17.070Z,22.00
2022-08-19T18:33:44.689Z,22.00
2022-08-19T18:36:11.506Z,22.00
2022-08-19T18:38:57.030Z,21.80
2022-08-19T18:41:42.636Z,22.30
2022-08-19T18:44:28.499Z,23.50
2022-08-19T18:47:13.742Z,23.10
2022-08-19T18:49:40.551Z,21.20
2022-08-19T18:52:07.546Z,22.70
2022-08-19T18:54:34.511Z,21.10
2022-08-19T18:57:01.370Z,21.10
2022-08-19T18:59:30.362Z,22.30
2022-08-19T19:01:58.622Z,20.90
2022-08-19T19:04:26.677Z,20.90
2022-08-19T19:06:53.446Z,20.80
2022-08-19T19:09:21.861Z,21.00
2022-08-19T19:11:50.880Z,21.90
2022-08-19T19:14:45.606Z,20.60
2022-08-19T19:17:13.830Z,20.60
2022-08-19T19:19:42.710Z,20.60
2022-08-19T19:22:13.863Z,20.50
2022-08-19T19:24:44.183Z,22.20
2022-08-19T19:27:12.549Z,20.60
2022-08-19T19:29:40.113Z,22.40
2022-08-19T19:32:08.176Z,20.50
2022-08-19T19:34:36.903Z,20.50
2022-08-19T19:37:03.639Z,21.50
2022-08-19T19:39:44.862Z,20.50
2022-08-19T19:42:20.120Z,20.40
2022-08-19T19:44:48.810Z,20.30
2022-08-19T19:47:16.133Z,22.00
2022-08-19T19:50:03.771Z,20.30
2022-08-19T19:52:29.728Z,20.30
2022-08-19T19:54:56.896Z,22.00
2022-08-19T19:57:23.873Z,20.10
2022-08-19T19:59:51.689Z,21.90
2022-08-19T20:02:18.609Z,20.60
2022-08-19T20:04:45.364Z,20.20
2022-08-19T20:07:12.044Z,21.10
2022-08-19T20:09:58.263Z,20.80
2022-08-19T20:12:25.454Z,20.40
2022-08-19T20:14:52.126Z,20.30
2022-08-19T20:17:20.542Z,21.90
2022-08-19T20:19:47.991Z,20.20
2022-08-19T20:22:14.753Z,20.30
2022-08-19T20:24:42.597Z,20.20
2022-08-19T20:27:10.687Z,21.00
2022-08-19T20:29:41.711Z,21.40
2022-08-19T20:32:11.691Z,20.20
2022-08-19T20:34:39.413Z,20.30
2022-08-19T20:37:07.794Z,20.20
2022-08-19T20:39:34.420Z,20.20
2022-08-19T20:42:01.097Z,21.20
2022-08-19T20:44:27.728Z,20.20
2022-08-19T20:46:56.770Z,20.10
2022-08-19T20:49:27.084Z,20.30
2022-08-19T20:51:54.670Z,20.10
2022-08-19T20:54:21.682Z,20.00
2022-08-19T20:56:48.341Z,20.00
2022-08-19T20:59:15.006Z,20.10
2022-08-19T21:01:41.931Z,21.20
2022-08-19T21:04:08.541Z,19.90
2022-08-19T21:06:35.228Z,20.00
2022-08-19T21:09:01.829Z,20.00
2022-08-19T21:11:28.472Z,19.90
2022-08-19T21:13:55.193Z,20.00
2022-08-19T21:16:22.092Z,21.60
2022-08-19T21:18:48.723Z,21.80
2022-08-19T21:21:16.039Z,20.70
2022-08-19T21:23:44.116Z,20.00
2022-08-19T21:26:10.901Z,20.30
2022-08-19T21:28:37.569Z,20.10
2022-08-19T21:31:05.535Z,20.90
2022-08-19T21:33:32.909Z,20.00
2022-08-19T21:36:00.260Z,20.00
2022-08-19T21:38:27.148Z,19.90
2022-08-19T21:40:53.767Z,20.00
2022-08-19T21:43:20.546Z,20.10
2022-08-19T21:45:47.888Z,20.10
2022-08-19T21:48:14.972Z,21.00
2022-08-19T21:50:42.380Z,20.80
2022-08-19T21:53:11.320Z,19.90
2022-08-19T21:55:40.618Z,19.90
2022-08-19T21:58:07.245Z,20.70
2022-08-19T22:00:34.822Z,21.00
2022-08-19T22:03:01.889Z,20.30
2022-08-19T22:05:28.712Z,19.90
2022-08-19T22:07:59.787Z,19.80
2022-08-19T22:10:28.155Z,20.70
2022-08-19T22:12:56.235Z,19.70
2022-08-19T22:15:24.012Z,19.70
2022-08-19T22:17:50.830Z,20.40
2022-08-19T22:20:19.780Z,19.60
2022-08-19T22:22:48.697Z,21.90
2022-08-19T22:25:30.064Z,19.50
2022-08-19T22:28:00.436Z,19.50
2022-08-19T22:30:33.128Z,19.40
2022-08-19T22:33:02.128Z,19.50
2022-08-19T22:35:31.382Z,21.10
2022-08-19T22:37:59.158Z,19.50
2022-08-19T22:40:27.011Z,19.40
2022-08-19T22:43:04.515Z,19.40
2022-08-19T22:45:31.875Z,19.40
2022-08-19T22:47:58.577Z,19.40
2022-08-19T22:50:25.700Z,19.30
2022-08-19T22:52:58.999Z,20.70
2022-08-19T22:55:26.645Z,19.20
2022-08-19T22:57:53.821Z,19.30
2022-08-19T23:00:21.650Z,20.10
2022-08-19T23:02:51.951Z,19.20
2022-08-19T23:05:21.842Z,19.10
2022-08-19T23:07:52.186Z,19.10
2022-08-19T23:10:26.806Z,19.00
2022-08-19T23:12:56.345Z,19.00
2022-08-19T23:15:25.849Z,18.90
2022-08-19T23:17:53.330Z,18.90
2022-08-19T23:20:20.288Z,19.10
2022-08-19T23:22:50.978Z,18.80
2022-08-19T23:25:19.346Z,18.80
2022-08-19T23:28:04.863Z,18.70
2022-08-19T23:30:33.344Z,18.60
2022-08-19T23:33:01.698Z,18.60
2022-08-19T23:35:32.688Z,18.50
2022-08-19T23:38:01.156Z,18.50
2022-08-19T23:40:28.297Z,18.40
2022-08-19T23:42:55.226Z,18.30
2022-08-19T23:45:24.550Z,18.30
2022-08-19T23:47:53.357Z,18.30
2022-08-19T23:50:20.820Z,18.20
2022-08-19T23:52:49.290Z,18.20
2022-08-19T23:55:16.824Z,18.20
2022-08-19T23:57:43.589Z,18.10
